Time;durP1;ratioP1;P1;durP2;ratioP2;P2;SDS_P1;SDS_P2;PMS_P1;PMS_P2;Temp;Humidity;BMP_temperature;BMP_pressure;BME280_temperature;BME280_humidity;BME280_pressure;Samples;Min_cycle;Max_cycle;Signal;HPM_P1;HPM_P2
2022/09/19 00:01:59;;;;;;;4.57;1.00;;;;;;;13.50;64.00;100365.09;5011045;28;98998;-67
2022/09/19 00:04:28;;;;;;;4.22;1.17;;;;;;;13.88;63.32;100365.69;5007654;28;99506;-67
2022/09/19 00:06:55;;;;;;;6.15;1.23;;;;;;;13.84;63.30;100361.47;5012199;28;97139;-67
2022/09/19 00:09:24;;;;;;;6.72;1.10;;;;;;;14.16;62.19;100364.16;5008946;28;96812;-68
2022/09/19 00:11:51;;;;;;;9.60;1.48;;;;;;;14.16;62.13;100366.81;5005644;28;100733;-66
2022/09/19 00:14:20;;;;;;;5.53;1.10;;;;;;;14.36;61.66;100363.88;5010453;28;99244;-67
2022/09/19 00:16:54;;;;;;;7.03;1.02;;;;;;;13.74;63.32;100365.56;5008123;28;96928;-67
2022/09/19 00:19:21;;;;;;;5.53;1.25;;;;;;;13.83;63.11;100367.72;5007026;28;96877;-67
2022/09/19 00:21:49;;;;;;;5.57;1.73;;;;;;;14.08;62.18;100377.84;5010502;28;99395;-67
2022/09/19 00:27:04;;;;;;;6.63;1.00;;;;;;;14.03;62.24;100376.41;5009363;28;96828;-67
2022/09/19 00:29:31;;;;;;;7.75;1.55;;;;;;;13.92;62.63;100377.84;5010357;28;96879;-67
2022/09/19 00:31:58;;;;;;;4.43;1.00;;;;;;;13.98;62.29;100380.16;5009148;28;98980;-67
2022/09/19 00:34:25;;;;;;;4.68;1.27;;;;;;;14.33;61.64;100377.31;5010260;28;99589;-67
2022/09/19 00:36:52;;;;;;;2.97;1.00;;;;;;;14.15;61.56;100381.88;5010430;28;96750;-67
2022/09/19 00:39:25;;;;;;;8.55;1.10;;;;;;;14.07;61.92;100383.25;5008723;28;96861;-67
2022/09/19 00:41:52;;;;;;;5.93;1.63;;;;;;;14.09;62.14;100387.53;5014485;28;98965;-68
2022/09/19 00:44:50;;;;;;;6.70;1.25;;;;;;;14.11;62.00;100390.94;5011919;28;99018;-67
2022/09/19 00:47:24;;;;;;;4.72;1.38;;;;;;;14.28;61.16;100396.19;5007002;28;96808;-68
2022/09/19 00:49:53;;;;;;;6.00;1.50;;;;;;;14.32;61.34;100395.06;5014956;28;97225;-67
2022/09/19 00:52:26;;;;;;;4.82;1.27;;;;;;;14.18;61.37;100388.81;5011488;28;99016;-67
2022/09/19 00:54:56;;;;;;;7.15;1.58;;;;;;;13.91;62.09;100383.25;5011782;28;100211;-68
2022/09/19 00:57:27;;;;;;;6.70;1.50;;;;;;;13.75;62.53;100393.84;5013302;28;96954;-67
2022/09/19 00:59:58;;;;;;;4.28;1.60;;;;;;;13.51;63.46;100389.84;5015018;28;96809;-67
2022/09/19 01:02:32;;;;;;;9.38;2.20;;;;;;;13.89;62.55;100388.63;5013570;28;98936;-68
2022/09/19 01:05:02;;;;;;;8.73;1.80;;;;;;;13.65;62.97;100392.63;5012719;28;99283;-67
2022/09/19 01:07:37;;;;;;;5.18;1.88;;;;;;;13.67;63.15;100398.69;5009888;28;98032;-69
2022/09/19 01:10:15;;;;;;;5.28;1.67;;;;;;;13.81;62.55;100398.81;5010291;28;96827;-68
2022/09/19 01:12:51;;;;;;;8.18;1.90;;;;;;;13.91;62.35;100396.53;5007355;28;101187;-67
2022/09/19 01:15:36;;;;;;;11.85;6.70;;;;;;;13.66;63.01;100399.63;5012133;28;98860;-68
2022/09/19 01:18:09;;;;;;;5.78;2.80;;;;;;;13.60;63.20;100397.31;5011550;28;97167;-67
2022/09/19 01:21:37;;;;;;;10.32;3.55;;;;;;;14.02;61.92;100402.09;5009312;28;97705;-67
2022/09/19 01:24:05;;;;;;;7.30;2.00;;;;;;;14.15;61.78;100402.28;5013082;28;98555;-67
2022/09/19 01:26:49;;;;;;;6.43;2.17;;;;;;;14.23;61.38;100405.38;5011809;28;98637;-67
2022/09/19 01:29:21;;;;;;;5.60;1.95;;;;;;;14.42;61.00;100411.41;5012416;28;97017;-67
2022/09/19 01:31:53;;;;;;;6.18;2.08;;;;;;;13.98;61.65;100409.38;5013257;28;97127;-68
2022/09/19 01:34:26;;;;;;;6.95;1.95;;;;;;;13.79;62.53;100411.31;5007830;28;98490;-66
2022/09/19 01:37:03;;;;;;;7.72;2.40;;;;;;;13.89;62.36;100414.34;5012145;28;99253;-66
2022/09/19 01:39:34;;;;;;;5.63;1.75;;;;;;;13.78;62.85;100414.94;5009530;28;97583;-65
2022/09/19 01:42:04;;;;;;;5.03;2.03;;;;;;;13.50;63.89;100419.97;5011946;28;96807;-67
2022/09/19 01:44:32;;;;;;;5.28;2.03;;;;;;;13.60;63.44;100417.69;5013811;28;98953;-67
2022/09/19 01:47:11;;;;;;;7.65;2.47;;;;;;;13.67;63.61;100422.59;5010528;28;98887;-67
2022/09/19 01:49:52;;;;;;;6.03;2.08;;;;;;;13.59;63.65;100424.78;5012550;28;97706;-67
2022/09/19 01:52:38;;;;;;;7.68;2.38;;;;;;;13.82;63.37;100423.56;5009812;28;97780;-66
2022/09/19 01:55:16;;;;;;;8.90;2.42;;;;;;;13.76;63.58;100421.25;5009285;28;99222;-66
2022/09/19 01:57:51;;;;;;;8.77;2.63;;;;;;;13.50;64.59;100431.47;5011878;28;98806;-66
2022/09/19 02:00:25;;;;;;;9.80;2.90;;;;;;;13.30;65.17;100438.75;5008107;28;96929;-67
2022/09/19 02:03:10;;;;;;;7.53;2.50;;;;;;;13.51;64.35;100427.88;5010716;28;96844;-67
2022/09/19 02:05:46;;;;;;;5.43;2.05;;;;;;;13.12;66.02;100441.41;5011970;28;99264;-66
2022/09/19 02:08:19;;;;;;;6.70;2.47;;;;;;;13.30;65.15;100444.03;5010891;28;98980;-66
2022/09/19 02:10:54;;;;;;;9.32;2.97;;;;;;;12.88;66.87;100442.59;5011885;28;96700;-67
2022/09/19 02:13:25;;;;;;;6.78;2.85;;;;;;;13.23;65.61;100448.81;5008663;28;97685;-67
2022/09/19 02:16:00;;;;;;;11.55;2.83;;;;;;;13.28;65.46;100451.22;5010669;28;99352;-66
2022/09/19 02:18:30;;;;;;;5.75;2.10;;;;;;;13.63;64.63;100452.06;5013119;28;99156;-66
2022/09/19 02:21:03;;;;;;;5.65;2.58;;;;;;;13.63;64.10;100447.59;5010637;28;97914;-67
2022/09/19 02:23:34;;;;;;;7.68;2.58;;;;;;;13.40;64.79;100448.78;5011685;28;97161;-66
2022/09/19 02:26:03;;;;;;;7.32;2.58;;;;;;;13.60;64.48;100450.41;5014122;28;99537;-67
2022/09/19 02:28:38;;;;;;;11.02;2.90;;;;;;;13.54;64.59;100454.25;5016241;28;99172;-66
2022/09/19 02:31:09;;;;;;;5.90;2.67;;;;;;;13.51;64.42;100453.56;5011470;28;96971;-67
2022/09/19 02:33:37;;;;;;;7.88;2.78;;;;;;;13.16;65.89;100455.34;5011721;28;97313;-66
2022/09/19 02:36:14;;;;;;;5.32;2.63;;;;;;;13.22;66.01;100463.00;5011170;28;99077;-66
2022/09/19 02:38:49;;;;;;;9.60;2.97;;;;;;;13.31;65.76;100462.56;5012041;28;99088;-67
2022/09/19 02:41:23;;;;;;;7.43;3.00;;;;;;;13.55;64.79;100468.38;5011942;28;96875;-67
2022/09/19 02:43:56;;;;;;;9.02;3.25;;;;;;;13.89;63.91;100467.47;5009438;28;97031;-66
2022/09/19 02:46:34;;;;;;;5.78;2.78;;;;;;;14.23;62.85;100472.69;5011172;28;99043;-66
2022/09/19 02:49:05;;;;;;;8.20;2.95;;;;;;;14.22;62.12;100462.97;5012006;28;97537;-67
2022/09/19 02:51:37;;;;;;;7.32;3.03;;;;;;;14.16;62.35;100467.78;5010442;28;97136;-67
2022/09/19 02:54:09;;;;;;;6.18;2.72;;;;;;;14.12;62.51;100475.03;5013200;28;96966;-67
2022/09/19 02:56:41;;;;;;;6.30;2.67;;;;;;;14.13;62.02;100468.78;5010050;28;99362;-67
2022/09/19 02:59:11;;;;;;;5.63;2.55;;;;;;;14.40;61.59;100471.75;5010814;28;98790;-67
2022/09/19 03:01:43;;;;;;;5.18;2.47;;;;;;;14.35;61.64;100485.28;5012249;28;96850;-66
2022/09/19 03:04:14;;;;;;;5.93;2.63;;;;;;;14.29;61.69;100476.78;5008237;28;97785;-67
2022/09/19 03:06:48;;;;;;;4.80;2.75;;;;;;;13.90;63.24;100477.16;5011231;28;99425;-67
2022/09/19 03:09:19;;;;;;;4.63;2.70;;;;;;;14.06;62.97;100477.16;5011627;28;99182;-67
2022/09/19 03:11:50;;;;;;;6.85;3.13;;;;;;;13.88;63.57;100474.56;5011431;28;96703;-68
2022/09/19 03:14:17;;;;;;;7.75;2.78;;;;;;;13.86;63.62;100478.22;5011800;28;96772;-66
2022/09/19 03:16:48;;;;;;;5.47;2.92;;;;;;;13.71;64.13;100489.69;5009627;28;98913;-67
2022/09/19 03:19:15;;;;;;;9.63;3.45;;;;;;;13.54;64.65;100495.84;5010086;28;99002;-66
2022/09/19 03:21:43;;;;;;;7.13;2.97;;;;;;;13.83;64.08;100486.38;5011078;28;96893;-66
2022/09/19 03:24:11;;;;;;;9.30;3.63;;;;;;;14.03;63.44;100495.94;5010318;28;96979;-68
2022/09/19 03:26:40;;;;;;;11.55;3.28;;;;;;;13.88;63.96;100487.00;5010758;28;99051;-67
2022/09/19 03:29:11;;;;;;;5.30;3.20;;;;;;;14.08;63.58;100497.41;5011031;28;101383;-66
2022/09/19 03:31:38;;;;;;;8.60;3.33;;;;;;;14.08;63.37;100504.53;5010985;28;97291;-66
2022/09/19 03:34:06;;;;;;;7.40;3.45;;;;;;;14.06;63.46;100506.41;5012167;28;97106;-67
2022/09/19 03:36:34;;;;;;;9.27;3.47;;;;;;;14.26;62.78;100506.19;5011608;28;98345;-67
2022/09/19 03:39:02;;;;;;;11.02;3.45;;;;;;;14.13;63.39;100506.00;5011989;28;99947;-67
2022/09/19 03:41:31;;;;;;;7.32;3.35;;;;;;;14.17;63.43;100506.69;5011422;28;97085;-66
2022/09/19 03:43:59;;;;;;;6.97;3.85;;;;;;;14.42;62.41;100512.41;5011220;28;96850;-67
2022/09/19 03:46:26;;;;;;;10.07;4.18;;;;;;;14.25;63.38;100507.97;5009334;28;98977;-66
2022/09/19 03:48:53;;;;;;;7.57;3.70;;;;;;;14.43;62.91;100521.25;5011945;28;99334;-67
2022/09/19 03:51:20;;;;;;;7.30;4.90;;;;;;;14.57;62.27;100516.03;5010313;28;96937;-67
2022/09/19 03:53:52;;;;;;;7.90;3.95;;;;;;;14.47;62.44;100528.09;5011557;28;98406;-67
2022/09/19 03:56:21;;;;;;;7.25;3.70;;;;;;;14.50;62.50;100526.16;5009066;28;99188;-67
2022/09/19 03:58:47;;;;;;;10.90;3.72;;;;;;;14.31;63.28;100522.72;5009611;28;99090;-66
2022/09/19 04:01:15;;;;;;;5.57;3.53;;;;;;;14.59;62.39;100525.63;5010939;28;96888;-66
2022/09/19 04:03:42;;;;;;;7.38;3.60;;;;;;;14.22;63.84;100528.56;5010628;28;97492;-67
2022/09/19 04:06:12;;;;;;;10.50;4.72;;;;;;;13.78;65.41;100526.47;5009933;28;99473;-67
2022/09/19 04:08:41;;;;;;;9.55;3.92;;;;;;;14.14;64.43;100526.31;5010464;28;99166;-67
2022/09/19 04:11:08;;;;;;;7.90;3.92;;;;;;;14.20;64.01;100527.78;5011267;28;96878;-67
2022/09/19 04:13:38;;;;;;;10.82;4.05;;;;;;;14.23;63.84;100527.63;5006651;28;98608;-68
2022/09/19 04:16:11;;;;;;;7.18;3.63;;;;;;;14.20;63.81;100535.75;5006265;28;99182;-67
2022/09/19 04:18:41;;;;;;;6.30;3.78;;;;;;;14.19;64.06;100528.72;5010422;28;99046;-66
2022/09/19 04:21:08;;;;;;;6.78;3.80;;;;;;;14.28;63.64;100531.75;5010767;28;97188;-66
2022/09/19 04:23:36;;;;;;;6.97;3.50;;;;;;;13.94;64.78;100535.34;5011540;28;97190;-67
2022/09/19 04:26:05;;;;;;;7.00;3.95;;;;;;;14.02;64.62;100536.72;5008261;28;99147;-66
2022/09/19 04:28:32;;;;;;;6.50;3.90;;;;;;;14.17;63.94;100538.59;5009956;28;97764;-66
2022/09/19 04:30:58;;;;;;;5.75;3.80;;;;;;;14.22;64.16;100544.50;5009878;28;96982;-67
2022/09/19 04:33:26;;;;;;;7.05;3.60;;;;;;;14.13;64.65;100558.25;5010912;28;96852;-67
2022/09/19 04:36:00;;;;;;;6.03;3.60;;;;;;;13.77;65.71;100556.63;5009240;28;99242;-66
2022/09/19 04:38:28;;;;;;;8.68;3.58;;;;;;;14.23;64.19;100560.38;5010183;28;98854;-66
2022/09/19 04:41:00;;;;;;;8.63;3.58;;;;;;;14.24;64.25;100556.75;5011017;28;96809;-66
2022/09/19 04:43:29;;;;;;;4.95;3.55;;;;;;;14.03;64.63;100560.56;5011478;28;96870;-67
2022/09/19 04:45:56;;;;;;;5.90;3.75;;;;;;;13.89;65.52;100566.59;5005377;28;98744;-67
2022/09/19 04:48:23;;;;;;;6.63;3.83;;;;;;;14.00;65.29;100562.50;5010517;28;99590;-67
2022/09/19 04:50:52;;;;;;;7.22;3.83;;;;;;;13.98;65.11;100560.78;5008747;28;96792;-66
2022/09/19 04:53:19;;;;;;;8.23;3.92;;;;;;;14.38;64.05;100568.47;5010653;28;98838;-66
2022/09/19 04:55:48;;;;;;;5.43;3.88;;;;;;;14.50;63.31;100579.34;5008810;28;99457;-66
2022/09/19 04:58:15;;;;;;;7.72;4.10;;;;;;;14.24;64.21;100571.88;5010397;28;99254;-67
2022/09/19 05:00:45;;;;;;;11.07;4.07;;;;;;;14.38;63.99;100574.66;5004783;28;96944;-67
2022/09/19 05:03:14;;;;;;;4.30;3.58;;;;;;;14.20;64.64;100573.81;5011235;28;97436;-67
2022/09/19 05:05:44;;;;;;;7.07;3.80;;;;;;;14.49;63.89;100579.41;5003922;28;99000;-68
2022/09/19 05:08:15;;;;;;;9.60;3.95;;;;;;;14.74;62.73;100587.75;5009538;28;99225;-68
2022/09/19 05:10:41;;;;;;;7.05;3.78;;;;;;;14.42;64.08;100586.84;5007040;28;96786;-67
2022/09/19 05:13:09;;;;;;;8.02;3.50;;;;;;;14.32;64.25;100590.91;5004042;28;96853;-67
2022/09/19 05:15:41;;;;;;;4.90;3.50;;;;;;;14.18;64.73;100585.44;5007358;28;98990;-66
2022/09/19 05:18:10;;;;;;;3.97;3.47;;;;;;;14.24;64.93;100587.81;5012814;28;98092;-67
2022/09/19 05:20:39;;;;;;;5.40;3.80;;;;;;;14.03;65.58;100599.56;5007100;28;96817;-66
2022/09/19 05:23:06;;;;;;;7.93;3.85;;;;;;;14.45;64.51;100597.31;5008150;28;97420;-67
2022/09/19 05:25:39;;;;;;;11.05;4.32;;;;;;;14.25;64.93;100593.03;5009181;28;97826;-67
2022/09/19 05:28:06;;;;;;;8.90;4.03;;;;;;;14.28;65.11;100611.47;5010620;28;99283;-67
2022/09/19 05:30:33;;;;;;;8.43;3.92;;;;;;;14.27;65.33;100604.44;5011367;28;97123;-67
2022/09/19 05:33:02;;;;;;;10.13;4.20;;;;;;;14.33;65.02;100613.88;5009292;28;96834;-68
2022/09/19 05:35:30;;;;;;;13.43;4.05;;;;;;;14.55;64.33;100613.63;5006596;28;98988;-67
2022/09/19 05:37:57;;;;;;;8.77;3.85;;;;;;;14.44;64.76;100608.03;5007219;28;99270;-68
2022/09/19 05:40:24;;;;;;;6.03;3.38;;;;;;;14.58;64.40;100616.13;5012760;28;97094;-67
2022/09/19 05:42:51;;;;;;;6.53;3.67;;;;;;;14.51;64.68;100618.25;5007882;28;97239;-67
2022/09/19 05:45:18;;;;;;;9.00;4.25;;;;;;;14.63;64.46;100622.06;5008075;28;99280;-67
2022/09/19 05:47:49;;;;;;;5.55;3.15;;;;;;;14.43;65.01;100620.47;5011263;28;98910;-67
2022/09/19 05:50:17;;;;;;;5.43;3.28;;;;;;;14.66;64.32;100624.53;5010221;28;96884;-68
2022/09/19 05:55:29;;;;;;;5.30;3.15;;;;;;;14.98;63.23;100638.75;5006090;28;98156;-67
2022/09/19 05:57:57;;;;;;;6.45;3.00;;;;;;;15.16;62.96;100627.91;5013219;28;98055;-67
2022/09/19 06:00:26;;;;;;;4.30;2.58;;;;;;;14.93;63.63;100635.47;5005892;28;97255;-68
2022/09/19 06:02:56;;;;;;;5.60;2.40;;;;;;;14.77;64.25;100646.09;5001293;28;97440;-67
2022/09/19 06:05:26;;;;;;;3.25;2.20;;;;;;;14.91;64.09;100638.22;5009033;28;99362;-69
2022/09/19 06:07:56;;;;;;;6.43;2.70;;;;;;;14.83;64.33;100644.91;5006179;28;98818;-68
2022/09/19 06:10:28;;;;;;;4.05;2.17;;;;;;;14.63;65.17;100638.03;5004977;28;98524;-67
2022/09/19 06:12:55;;;;;;;6.70;2.88;;;;;;;14.66;65.33;100649.34;5005556;28;97273;-68
2022/09/19 06:15:21;;;;;;;4.53;2.30;;;;;;;14.77;65.21;100646.94;5006509;28;99775;-68
2022/09/19 06:17:54;;;;;;;8.68;2.28;;;;;;;14.89;64.52;100653.44;5007868;28;98991;-68
2022/09/19 06:20:20;;;;;;;3.90;2.30;;;;;;;14.62;65.92;100661.09;5009821;28;97208;-69
2022/09/19 06:22:47;;;;;;;4.90;2.28;;;;;;;14.94;64.73;100663.81;5004392;28;97866;-68
2022/09/19 06:25:15;;;;;;;7.60;2.40;;;;;;;14.83;65.37;100660.88;5006593;28;99419;-68
2022/09/19 06:27:44;;;;;;;6.93;2.63;;;;;;;14.94;65.15;100674.44;5009311;28;99205;-67
2022/09/19 06:30:17;;;;;;;12.70;2.45;;;;;;;15.02;64.93;100672.25;5011850;28;97231;-68
2022/09/19 06:32:43;;;;;;;5.15;2.08;;;;;;;15.15;64.45;100673.28;5011870;28;96889;-68
2022/09/19 06:35:10;;;;;;;3.60;2.20;;;;;;;15.34;63.64;100681.94;5011388;28;100646;-68
2022/09/19 06:37:36;;;;;;;5.85;2.10;;;;;;;15.13;64.26;100678.69;5010829;28;99333;-68
2022/09/19 06:40:08;;;;;;;3.10;1.90;;;;;;;15.04;64.99;100675.66;5012701;28;97245;-73
2022/09/19 06:42:36;;;;;;;2.05;1.65;;;;;;;15.38;63.96;100680.81;5011826;28;96810;-67
2022/09/19 06:45:03;;;;;;;4.30;2.38;;;;;;;15.39;63.73;100682.53;5012447;28;99095;-68
2022/09/19 06:47:30;;;;;;;5.22;2.72;;;;;;;15.60;63.15;100684.97;5011398;28;101692;-68
2022/09/19 06:49:59;;;;;;;4.22;2.05;;;;;;;15.71;63.12;100688.72;5012459;28;96799;-68
2022/09/19 06:52:25;;;;;;;5.95;1.92;;;;;;;15.62;62.98;100697.25;5012276;28;96794;-68
2022/09/19 06:54:51;;;;;;;6.40;1.60;;;;;;;15.76;62.68;100696.44;5008579;28;99016;-69
2022/09/19 06:57:18;;;;;;;4.55;1.80;;;;;;;16.06;61.73;100702.69;5008482;28;98857;-68
2022/09/19 06:59:45;;;;;;;6.53;1.70;;;;;;;15.74;62.36;100701.88;5003218;28;96752;-68
2022/09/19 07:02:12;;;;;;;8.63;1.50;;;;;;;15.95;62.24;100710.41;5010359;28;96949;-69
2022/09/19 07:04:39;;;;;;;6.85;2.78;;;;;;;16.18;61.77;100715.28;5008788;28;98993;-69
2022/09/19 07:07:06;;;;;;;6.75;2.38;;;;;;;16.05;61.75;100718.75;5008114;28;98829;-69
2022/09/19 07:09:32;;;;;;;10.30;2.10;;;;;;;16.28;61.24;100718.25;5008824;28;98928;-69
2022/09/19 07:12:01;;;;;;;4.68;1.98;;;;;;;16.25;61.35;100721.97;5006503;28;97660;-70
2022/09/19 07:14:32;;;;;;;4.30;1.70;;;;;;;16.46;60.93;100726.97;5004752;28;100136;-68
2022/09/19 07:17:00;;;;;;;3.53;1.35;;;;;;;16.38;61.00;100726.56;5009942;28;98854;-68
2022/09/19 07:19:26;;;;;;;5.47;1.50;;;;;;;16.46;60.98;100734.97;5011520;28;96768;-68
2022/09/19 07:21:55;;;;;;;6.03;1.70;;;;;;;16.43;60.58;100728.00;5010593;28;97471;-67
2022/09/19 07:24:21;;;;;;;3.67;1.40;;;;;;;16.25;61.75;100737.97;5010264;28;99241;-67
2022/09/19 07:26:48;;;;;;;3.25;1.27;;;;;;;16.64;60.74;100741.91;5008481;28;97799;-66
2022/09/19 07:29:14;;;;;;;4.13;1.50;;;;;;;16.68;60.23;100744.28;5002596;28;99803;-66
2022/09/19 07:31:41;;;;;;;2.67;1.30;;;;;;;16.79;60.03;100745.44;5005137;28;97721;-66
2022/09/19 07:34:10;;;;;;;5.95;1.67;;;;;;;16.77;60.04;100744.69;5007697;28;99083;-66
2022/09/19 07:36:36;;;;;;;9.40;1.65;;;;;;;16.42;61.65;100750.28;5007698;28;98938;-67
2022/09/19 07:39:03;;;;;;;4.13;1.55;;;;;;;16.40;61.81;100754.00;5010605;28;97800;-67
2022/09/19 07:41:31;;;;;;;6.65;1.40;;;;;;;16.56;61.36;100753.00;5009394;28;96986;-66
2022/09/19 07:43:57;;;;;;;6.57;1.80;;;;;;;16.39;61.72;100762.97;5009811;28;98953;-67
2022/09/19 07:46:25;;;;;;;2.92;1.10;;;;;;;16.14;62.68;100756.41;5007334;28;99162;-66
2022/09/19 07:48:54;;;;;;;5.25;1.38;;;;;;;16.30;62.33;100765.22;5009448;28;97251;-66
2022/09/19 07:51:21;;;;;;;7.75;1.38;;;;;;;16.72;61.12;100758.31;5008889;28;96884;-66
2022/09/19 07:53:49;;;;;;;4.65;1.50;;;;;;;17.27;59.59;100774.44;5011064;28;99222;-67
2022/09/19 07:56:15;;;;;;;4.03;1.42;;;;;;;17.00;59.84;100774.31;5005447;28;99139;-67
2022/09/19 07:58:43;;;;;;;4.18;1.50;;;;;;;17.00;60.00;100784.19;5010914;28;97037;-66
2022/09/19 08:01:11;;;;;;;4.85;1.27;;;;;;;17.41;58.76;100781.56;5005641;28;97139;-67
2022/09/19 08:03:37;;;;;;;5.25;1.30;;;;;;;17.08;60.00;100781.88;4992715;28;98957;-66
2022/09/19 08:06:04;;;;;;;7.30;1.38;;;;;;;17.35;58.94;100781.97;5004440;28;98797;-67
2022/09/19 08:08:35;;;;;;;3.92;0.98;;;;;;;17.30;58.84;100781.41;5000380;28;99166;-66
2022/09/19 08:11:01;;;;;;;3.45;1.13;;;;;;;17.19;59.82;100800.78;5004022;28;97500;-67
2022/09/19 08:13:29;;;;;;;3.40;1.30;;;;;;;17.14;59.60;100793.03;5005371;28;98959;-66
2022/09/19 08:15:57;;;;;;;4.25;1.00;;;;;;;17.48;58.92;100796.25;5007228;28;98817;-66
2022/09/19 08:18:27;;;;;;;7.00;3.50;;;;;;;17.22;59.67;100799.72;5008063;28;96883;-66
2022/09/19 08:20:57;;;;;;;4.28;2.20;;;;;;;17.59;58.02;100792.94;5008197;28;97073;-67
2022/09/19 08:23:29;;;;;;;4.95;1.08;;;;;;;17.36;59.04;100802.38;5006401;28;99119;-66
2022/09/19 08:26:05;;;;;;;2.40;1.02;;;;;;;17.60;58.32;100810.66;5004035;28;98692;-66
2022/09/19 08:28:31;;;;;;;;;;;;;;;17.87;57.42;100804.44;5007861;28;97433;-67
2022/09/19 08:30:59;;;;;;;2.37;0.90;;;;;;;17.92;56.95;100807.66;5010430;28;96902;-66
2022/09/19 08:33:26;;;;;;;3.03;1.08;;;;;;;18.11;56.71;100810.03;5001138;28;99014;-68
2022/09/19 08:35:55;;;;;;;2.10;1.00;;;;;;;18.11;56.50;100814.50;5006497;28;97522;-66
2022/09/19 08:38:25;;;;;;;4.35;1.00;;;;;;;17.95;56.98;100813.78;5009115;28;98120;-66
2022/09/19 08:41:09;;;;;;;2.00;0.70;;;;;;;18.17;56.16;100827.47;5008843;28;97255;-66
2022/09/19 08:43:44;;;;;;;5.63;0.85;;;;;;;17.92;57.17;100823.69;5008645;28;99044;-66
2022/09/19 08:46:21;;;;;;;6.28;0.70;;;;;;;18.18;56.03;100826.53;5003449;28;99601;-67
2022/09/19 08:48:57;;;;;;;7.50;2.38;;;;;;;18.22;56.05;100822.66;5007085;28;97100;-66
2022/09/19 08:51:28;;;;;;;3.75;2.25;;;;;;;18.36;55.81;100821.75;5009222;28;96890;-66
2022/09/19 08:54:00;;;;;;;2.35;0.75;;;;;;;18.27;55.70;100832.09;5001339;28;99320;-67
2022/09/19 08:56:32;;;;;;;1.65;0.90;;;;;;;18.42;55.28;100834.72;5006979;28;98698;-66
2022/09/19 08:59:03;;;;;;;3.63;0.93;;;;;;;18.43;55.48;100833.78;5009372;28;97917;-67
2022/09/19 09:01:34;;;;;;;4.57;1.15;;;;;;;18.53;55.10;100829.50;4999399;28;98285;-67
2022/09/19 09:04:26;;;;;;;4.43;0.95;;;;;;;18.61;54.33;100832.56;5009089;28;99179;-66
2022/09/19 09:07:08;;;;;;;4.32;1.00;;;;;;;19.16;53.01;100829.66;5009607;28;99978;-66
2022/09/19 09:09:50;;;;;;;3.35;1.38;;;;;;;19.30;51.78;100836.69;5010764;28;96868;-67
2022/09/19 09:12:31;;;;;;;2.55;0.57;;;;;;;18.61;53.51;100832.56;5005395;28;97332;-67
2022/09/19 09:15:11;;;;;;;2.35;0.70;;;;;;;18.45;53.80;100835.38;5010137;28;98860;-66
2022/09/19 09:17:47;;;;;;;2.95;0.57;;;;;;;18.80;52.14;100837.53;5009600;28;98846;-66
2022/09/19 09:20:27;;;;;;;2.45;0.82;;;;;;;18.32;53.08;100829.13;5012865;28;97338;-66
2022/09/19 09:23:05;;;;;;;2.03;0.90;;;;;;;19.41;51.08;100832.31;5008896;28;96824;-66
2022/09/19 09:25:35;;;;;;;4.70;0.55;;;;;;;19.63;50.37;100833.47;5008099;28;98395;-66
2022/09/19 09:28:08;;;;;;;3.50;0.80;;;;;;;19.11;51.12;100843.34;5013230;28;99566;-67
2022/09/19 09:30:46;;;;;;;4.60;0.88;;;;;;;19.36;50.68;100838.97;5012245;28;96772;-65
2022/09/19 09:33:21;;;;;;;1.65;0.57;;;;;;;19.82;49.12;100831.22;5007101;28;96893;-66
2022/09/19 09:35:54;;;;;;;5.03;0.70;;;;;;;20.10;48.50;100833.56;5009608;28;98937;-68
2022/09/19 09:38:31;;;;;;;2.72;0.80;;;;;;;20.21;48.21;100835.47;5012653;28;98879;-67
2022/09/19 09:43:59;;;;;;;2.88;0.55;;;;;;;20.52;46.95;100826.00;5004650;28;96682;-67
2022/09/19 09:46:36;;;;;;;2.33;1.08;;;;;;;19.99;47.74;100833.50;5009844;28;99174;-68
2022/09/19 09:49:05;;;;;;;3.78;0.60;;;;;;;19.80;48.25;100835.81;5010996;28;97853;-66
2022/09/19 09:51:41;;;;;;;2.25;0.40;;;;;;;19.65;48.81;100837.78;5010139;28;97414;-67
2022/09/19 09:57:14;;;;;;;1.17;0.60;;;;;;;19.55;50.97;100843.91;5008673;28;97084;-67
2022/09/19 10:05:33;;;;;;;2.70;1.00;;;;;;;18.89;55.12;100885.97;5009484;28;98194;-66
2022/09/19 10:08:16;;;;;;;3.50;1.15;;;;;;;18.18;55.51;100901.41;5008510;28;97740;-67
2022/09/19 10:10:45;;;;;;;1.92;0.40;;;;;;;17.60;52.37;100886.31;5010852;28;98818;-67
2022/09/19 10:13:25;;;;;;;1.17;0.35;;;;;;;16.94;54.48;100891.28;5003837;28;97339;-68
2022/09/19 10:16:02;;;;;;;1.77;0.35;;;;;;;16.61;55.70;100876.31;5008066;28;97341;-67
2022/09/19 10:18:41;;;;;;;1.25;0.40;;;;;;;16.93;54.96;100869.09;5009927;28;99051;-66
2022/09/19 10:21:18;;;;;;;2.38;0.70;;;;;;;17.08;54.75;100896.66;5011306;28;100489;-69
2022/09/19 10:23:45;;;;;;;2.47;0.55;;;;;;;16.63;55.42;100908.25;5010442;28;98338;-68
2022/09/19 10:26:15;;;;;;;0.98;0.20;;;;;;;16.32;55.97;100909.97;5008798;28;96899;-67
2022/09/19 10:28:51;;;;;;;3.17;0.77;;;;;;;16.42;57.34;100906.78;5009528;28;100258;-67
2022/09/19 10:31:27;;;;;;;3.42;0.65;;;;;;;16.09;56.94;100901.53;5010263;28;98875;-67
2022/09/19 10:34:02;;;;;;;1.08;0.35;;;;;;;16.22;54.91;100898.09;5009004;28;96829;-66
2022/09/19 10:36:33;;;;;;;1.50;0.22;;;;;;;16.20;54.85;100881.34;5011098;28;97283;-66
2022/09/19 10:39:09;;;;;;;2.72;1.80;;;;;;;16.34;54.80;100905.41;5003346;28;99302;-68
2022/09/19 10:41:38;;;;;;;1.88;0.40;;;;;;;16.30;54.40;100897.66;5011469;28;98374;-67
2022/09/19 10:44:08;;;;;;;0.70;0.50;;;;;;;16.64;53.99;100910.84;5010544;28;96775;-68
2022/09/19 10:46:46;;;;;;;3.00;0.40;;;;;;;16.73;53.94;100904.13;5009479;28;96901;-66
2022/09/19 10:49:20;;;;;;;4.53;0.55;;;;;;;16.92;54.27;100906.56;5008124;28;98920;-68
2022/09/19 10:51:48;;;;;;;3.53;1.10;;;;;;;16.90;54.61;100909.31;5010177;28;98973;-65
2022/09/19 10:54:28;;;;;;;2.50;0.98;;;;;;;16.38;54.20;100910.56;5009475;28;96783;-65
2022/09/19 10:56:58;;;;;;;3.53;1.45;;;;;;;16.50;54.73;100901.88;5008362;28;96816;-67
2022/09/19 10:59:36;;;;;;;2.38;0.52;;;;;;;16.68;54.28;100903.50;5008788;28;98922;-66
2022/09/19 11:02:19;;;;;;;3.28;0.50;;;;;;;16.84;53.97;100915.00;5009347;28;102417;-66
2022/09/19 11:04:55;;;;;;;3.85;1.85;;;;;;;17.07;54.26;100889.59;5008195;28;97468;-68
2022/09/19 11:07:28;;;;;;;4.32;1.60;;;;;;;16.99;56.87;100884.75;5007327;28;97394;-66
2022/09/19 11:09:59;;;;;;;4.40;1.00;;;;;;;17.16;57.14;100883.72;5011156;28;99038;-66
2022/09/19 11:12:27;;;;;;;3.47;0.75;;;;;;;17.09;57.79;100888.56;5008230;28;102006;-65
2022/09/19 11:14:55;;;;;;;2.10;0.60;;;;;;;17.29;56.62;100891.84;5010587;28;96807;-66
2022/09/19 11:20:30;;;;;;;0.83;0.40;;;;;;;17.60;56.10;100875.63;5070360;27;98161;-67
2022/09/19 11:23:15;;;;;;;2.13;0.70;;;;;;;17.53;57.04;100880.50;5065612;27;97019;-67
2022/09/19 11:25:53;;;;;;;1.25;0.70;;;;;;;17.54;57.61;100876.88;5067152;27;101146;-67
2022/09/19 11:28:34;;;;;;;1.55;1.00;;;;;;;17.74;56.55;100878.34;5060866;27;99060;-67
2022/09/19 11:31:11;;;;;;;2.45;1.00;;;;;;;18.02;56.75;100877.44;5067352;27;97144;-67
2022/09/19 11:33:53;;;;;;;3.45;0.60;;;;;;;17.89;57.33;100871.16;5061441;27;97272;-67
2022/09/19 11:36:29;;;;;;;1.25;0.47;;;;;;;17.95;56.07;100870.78;5069611;27;102219;-66
2022/09/19 11:39:03;;;;;;;3.50;0.75;;;;;;;18.18;56.91;100874.66;5066982;27;98842;-67
2022/09/19 11:41:44;;;;;;;1.70;0.77;;;;;;;17.75;56.53;100881.88;5068723;27;97172;-66
2022/09/19 11:44:43;;;;;;;2.50;1.00;;;;;;;17.85;56.23;100878.50;5069219;27;96971;-65
2022/09/19 11:47:25;;;;;;;2.75;1.00;;;;;;;17.72;56.23;100876.75;5064446;27;99006;-66
2022/09/19 11:50:21;;;;;;;3.97;1.70;;;;;;;18.36;56.10;100869.91;5068653;27;99097;-67
2022/09/19 11:53:03;;;;;;;4.35;0.80;;;;;;;19.00;55.03;100877.19;5063387;27;96752;-66
2022/09/19 11:55:39;;;;;;;0.90;0.80;;;;;;;19.40;54.89;100884.19;5067752;27;97430;-66
2022/09/19 11:58:12;;;;;;;4.10;1.10;;;;;;;19.67;52.50;100877.88;5065572;27;98380;-66
2022/09/19 12:00:52;;;;;;;4.40;1.20;;;;;;;20.41;51.77;100885.88;5067762;27;99094;-67
2022/09/19 12:03:38;;;;;;;1.35;0.75;;;;;;;20.69;51.45;100884.66;5064897;27;96741;-67
2022/09/19 12:06:18;;;;;;;0.90;0.57;;;;;;;20.60;50.57;100907.69;5066699;27;97236;-67